Time;durP1;ratioP1;P1;durP2;ratioP2;P2;SDS_P1;SDS_P2;PMS_P1;PMS_P2;Temp;Humidity;BMP_temperature;BMP_pressure;BME280_temperature;BME280_humidity;BME280_pressure;Samples;Min_cycle;Max_cycle;Signal;HPM_P1;HPM_P2
2021/09/01 00:02:03;;;;;;;1999.90;999.90;;;15.70;99.90;;;;;;5051880;28;20266;-69
2021/09/01 00:04:29;;;;;;;1999.90;999.90;;;15.80;99.90;;;;;;5051591;28;20665;-69
2021/09/01 00:06:54;;;;;;;1999.90;999.90;;;15.80;99.90;;;;;;5051841;28;20717;-69
2021/09/01 00:09:20;;;;;;;1999.90;999.90;;;15.90;99.90;;;;;;5051883;28;20293;-69
2021/09/01 00:11:46;;;;;;;1999.90;999.90;;;15.90;99.90;;;;;;5051785;28;20173;-69
2021/09/01 00:14:13;;;;;;;1999.90;999.90;;;15.90;99.90;;;;;;5051173;28;20692;-69
2021/09/01 00:16:39;;;;;;;1999.90;999.90;;;16.00;99.90;;;;;;5051705;28;20235;-69
2021/09/01 00:19:07;;;;;;;1999.90;999.90;;;16.00;99.90;;;;;;5051676;28;20424;-69
2021/09/01 00:21:33;;;;;;;1999.90;999.90;;;16.00;99.90;;;;;;5051698;28;20842;-69
2021/09/01 00:23:59;;;;;;;1999.90;999.90;;;15.90;99.90;;;;;;5051176;28;20422;-69
2021/09/01 00:26:26;;;;;;;1999.90;999.90;;;15.80;99.90;;;;;;5051620;28;20445;-69
2021/09/01 00:28:52;;;;;;;1999.90;999.90;;;15.80;99.90;;;;;;5051597;28;20418;-69
2021/09/01 00:31:18;;;;;;;1999.90;999.90;;;15.70;99.90;;;;;;5051613;28;20903;-69
2021/09/01 00:33:45;;;;;;;1999.90;999.90;;;15.60;99.90;;;;;;5051306;28;20427;-69
2021/09/01 00:36:11;;;;;;;1999.90;999.90;;;15.50;99.90;;;;;;5055110;28;20491;-69
2021/09/01 00:38:37;;;;;;;1999.90;999.90;;;15.50;99.90;;;;;;5055579;28;20502;-69
2021/09/01 00:41:03;;;;;;;1999.90;999.90;;;15.40;99.90;;;;;;5055470;28;20198;-69
2021/09/01 00:43:28;;;;;;;1999.90;999.90;;;15.30;99.90;;;;;;5055307;28;20168;-69
2021/09/01 00:45:54;;;;;;;1999.90;999.90;;;15.30;99.90;;;;;;5055190;28;20966;-69
2021/09/01 00:48:22;;;;;;;1999.90;999.90;;;15.40;99.90;;;;;;5055365;28;20175;-69
2021/09/01 00:50:51;;;;;;;1999.90;999.90;;;15.30;99.90;;;;;;5055314;28;20168;-69
2021/09/01 00:53:18;;;;;;;1999.90;999.90;;;15.30;99.90;;;;;;5055596;28;20399;-69
2021/09/01 00:55:46;;;;;;;1999.90;999.90;;;15.30;99.90;;;;;;5054893;28;20918;-69
2021/09/01 00:58:16;;;;;;;1999.90;999.90;;;15.30;99.90;;;;;;5055193;28;20406;-69
2021/09/01 01:01:14;;;;;;;1999.90;999.90;;;15.30;99.90;;;;;;5055211;28;20449;-69
2021/09/01 01:03:28;;;;;;;1999.90;999.90;;;15.20;99.90;;;;;;5054520;28;20424;-69
2021/09/01 01:05:57;;;;;;;1999.90;999.90;;;15.30;99.90;;;;;;5054852;28;20550;-69
2021/09/01 01:08:27;;;;;;;1999.90;999.90;;;15.30;99.90;;;;;;5055054;28;20541;-69
2021/09/01 01:10:52;;;;;;;1999.90;999.90;;;15.30;99.90;;;;;;5055057;28;20485;-69
2021/09/01 01:13:18;;;;;;;1999.90;999.90;;;15.30;99.90;;;;;;5054930;28;20402;-69
2021/09/01 01:15:44;;;;;;;1999.90;999.90;;;15.30;99.90;;;;;;5054467;28;20232;-68
2021/09/01 01:18:10;;;;;;;1999.90;999.90;;;15.30;99.90;;;;;;5054880;28;20167;-68
2021/09/01 01:20:39;;;;;;;1999.90;999.90;;;15.30;99.90;;;;;;5054856;28;20189;-68
2021/09/01 01:23:06;;;;;;;1999.90;999.90;;;15.30;99.90;;;;;;5054753;28;20493;-68
2021/09/01 01:25:34;;;;;;;1999.90;999.90;;;15.20;99.90;;;;;;5054412;28;20415;-68
2021/09/01 01:28:00;;;;;;;1999.90;999.90;;;15.20;99.90;;;;;;5054934;28;20953;-68
2021/09/01 01:30:26;;;;;;;1999.90;999.90;;;15.20;99.90;;;;;;5054640;28;20412;-69
2021/09/01 01:32:53;;;;;;;1999.90;999.90;;;15.10;99.90;;;;;;5054586;28;20175;-68
2021/09/01 01:35:34;;;;;;;1999.90;999.90;;;15.10;99.90;;;;;;5054250;28;20192;-68
2021/09/01 01:38:02;;;;;;;1999.90;999.90;;;15.00;99.90;;;;;;5054520;28;20463;-67
2021/09/01 01:40:28;;;;;;;1999.90;999.90;;;15.00;99.90;;;;;;5054295;28;20456;-68
2021/09/01 01:42:54;;;;;;;1999.90;999.90;;;15.00;99.90;;;;;;5054265;28;20742;-68
2021/09/01 01:45:30;;;;;;;1999.90;999.90;;;14.90;99.90;;;;;;5053475;28;20914;-68
2021/09/01 01:47:56;;;;;;;1999.90;999.90;;;14.90;99.90;;;;;;5054351;28;20429;-68
2021/09/01 01:50:21;;;;;;;1999.90;999.90;;;14.90;99.90;;;;;;5054201;28;20447;-67
2021/09/01 01:52:47;;;;;;;1999.90;999.90;;;14.90;99.90;;;;;;5054340;28;20200;-68
2021/09/01 01:55:12;;;;;;;1999.90;999.90;;;15.00;99.90;;;;;;5053795;28;20202;-68
2021/09/01 01:57:38;;;;;;;1999.90;999.90;;;15.00;99.90;;;;;;5054061;28;20621;-68
2021/09/01 02:00:06;;;;;;;1999.90;999.90;;;15.00;99.90;;;;;;5054051;28;20172;-68
2021/09/01 02:02:32;;;;;;;1999.90;999.90;;;15.00;99.90;;;;;;5053891;28;20418;-68
2021/09/01 02:04:59;;;;;;;1999.90;999.90;;;15.00;99.90;;;;;;5053689;28;20919;-68
2021/09/01 02:07:25;;;;;;;1999.90;999.90;;;15.00;99.90;;;;;;5053957;28;20487;-68
2021/09/01 02:09:51;;;;;;;1999.90;999.90;;;15.00;99.90;;;;;;5053825;28;20396;-68
2021/09/01 02:12:16;;;;;;;1999.90;999.90;;;15.00;99.90;;;;;;5053695;28;21221;-68
2021/09/01 02:14:42;;;;;;;1999.90;999.90;;;15.00;99.90;;;;;;5053341;28;20233;-68
2021/09/01 02:17:08;;;;;;;1999.90;999.90;;;15.00;99.90;;;;;;5053745;28;20730;-68
2021/09/01 02:19:33;;;;;;;1999.90;999.90;;;15.00;99.90;;;;;;5053701;28;20171;-68
2021/09/01 02:21:59;;;;;;;1999.90;999.90;;;15.00;99.90;;;;;;5053655;28;20222;-68
2021/09/01 02:24:24;;;;;;;1999.90;999.90;;;15.10;99.90;;;;;;5053197;28;20188;-68
2021/09/01 02:26:50;;;;;;;1999.90;999.90;;;15.00;99.90;;;;;;5053452;28;20181;-68
2021/09/01 02:29:16;;;;;;;1999.90;999.90;;;15.10;99.90;;;;;;5053494;28;20174;-68
2021/09/01 02:31:41;;;;;;;1999.90;999.90;;;15.00;99.90;;;;;;5053522;28;20259;-69
2021/09/01 02:34:07;;;;;;;1999.90;999.90;;;15.10;99.90;;;;;;5053088;28;20192;-68
2021/09/01 02:36:33;;;;;;;1999.90;999.90;;;15.10;99.90;;;;;;5053393;28;20173;-68
2021/09/01 02:38:58;;;;;;;1999.90;999.90;;;15.10;99.90;;;;;;5053286;28;20176;-67
2021/09/01 02:41:24;;;;;;;1999.90;999.90;;;15.10;99.90;;;;;;5053124;28;20649;-68
2021/09/01 02:43:50;;;;;;;1999.90;999.90;;;15.10;99.90;;;;;;5053039;28;20306;-68
2021/09/01 02:46:20;;;;;;;1999.90;999.90;;;15.20;99.90;;;;;;5053077;28;20167;-68
2021/09/01 02:48:46;;;;;;;1999.90;999.90;;;15.20;99.90;;;;;;5053109;28;20407;-68
2021/09/01 02:51:12;;;;;;;1999.90;999.90;;;15.10;99.90;;;;;;5053142;28;20814;-69
2021/09/01 02:53:37;;;;;;;1999.90;999.90;;;15.10;99.90;;;;;;5052911;28;20401;-68
2021/09/01 02:56:03;;;;;;;1999.90;999.90;;;15.00;99.90;;;;;;5052717;28;20175;-68
2021/09/01 02:58:29;;;;;;;1999.90;999.90;;;15.00;99.90;;;;;;5052072;28;20422;-68
2021/09/01 03:00:55;;;;;;;1999.90;999.90;;;15.00;99.90;;;;;;5052837;28;20455;-67
2021/09/01 03:03:21;;;;;;;1999.90;999.90;;;15.00;99.90;;;;;;5052907;28;20177;-68
2021/09/01 03:05:47;;;;;;;1999.90;999.90;;;15.10;99.90;;;;;;5052462;28;20441;-68
2021/09/01 03:08:12;;;;;;;1999.90;999.90;;;15.10;99.90;;;;;;5052743;28;20175;-68
2021/09/01 03:10:38;;;;;;;1999.90;999.90;;;15.10;99.90;;;;;;5052699;28;20465;-68
2021/09/01 03:13:04;;;;;;;1999.90;999.90;;;15.20;99.90;;;;;;5052658;28;20644;-68
2021/09/01 03:15:30;;;;;;;1999.90;999.90;;;15.20;99.90;;;;;;5052714;28;20217;-68
2021/09/01 03:17:55;;;;;;;1999.90;999.90;;;15.20;99.90;;;;;;5053716;28;20703;-69
2021/09/01 03:20:21;;;;;;;1999.90;999.90;;;15.20;99.90;;;;;;5052436;28;20451;-69
2021/09/01 03:22:47;;;;;;;1999.90;999.90;;;15.20;99.90;;;;;;5052474;28;20167;-69
2021/09/01 03:25:12;;;;;;;1999.90;999.90;;;15.20;99.90;;;;;;5052033;28;20424;-68
2021/09/01 03:27:38;;;;;;;1999.90;999.90;;;15.30;99.90;;;;;;5052394;28;20182;-68
2021/09/01 03:30:05;;;;;;;1999.90;999.90;;;15.30;99.90;;;;;;5052681;28;20164;-69
2021/09/01 03:32:31;;;;;;;1999.90;999.90;;;15.40;99.90;;;;;;5052386;28;20549;-69
2021/09/01 03:34:56;;;;;;;1999.90;999.90;;;15.50;99.90;;;;;;5051873;28;20518;-68
2021/09/01 03:37:23;;;;;;;1999.90;999.90;;;15.50;99.90;;;;;;5052171;28;20480;-69
2021/09/01 03:39:49;;;;;;;1999.90;999.90;;;15.50;99.90;;;;;;5052236;28;20173;-68
2021/09/01 03:42:15;;;;;;;1999.90;999.90;;;15.50;99.90;;;;;;5052126;28;20868;-69
2021/09/01 03:44:40;;;;;;;1999.90;999.90;;;15.50;99.90;;;;;;5051759;28;20526;-68
2021/09/01 03:47:06;;;;;;;1999.90;999.90;;;15.60;99.90;;;;;;5052075;28;20545;-69
2021/09/01 03:49:32;;;;;;;1999.90;999.90;;;15.50;99.90;;;;;;5052042;28;20544;-68
2021/09/01 03:51:57;;;;;;;1999.90;999.90;;;15.60;99.90;;;;;;5052020;28;20594;-69
2021/09/01 03:54:24;;;;;;;1999.90;999.90;;;15.60;99.90;;;;;;5051612;28;20202;-69
2021/09/01 03:56:50;;;;;;;1999.90;999.90;;;15.60;99.90;;;;;;5052043;28;20665;-68
2021/09/01 03:59:15;;;;;;;1999.90;999.90;;;15.50;99.90;;;;;;5052059;28;20410;-69
2021/09/01 04:01:41;;;;;;;1999.90;999.90;;;15.50;99.90;;;;;;5051793;28;20204;-68
2021/09/01 04:04:07;;;;;;;1999.90;999.90;;;15.40;99.90;;;;;;5051531;28;20226;-69
2021/09/01 04:06:33;;;;;;;1999.90;999.90;;;15.40;99.90;;;;;;5051780;28;20180;-69
2021/09/01 04:08:59;;;;;;;1999.90;999.90;;;15.40;99.90;;;;;;5051610;28;20442;-69
2021/09/01 04:11:25;;;;;;;1999.90;999.90;;;15.30;99.90;;;;;;5051881;28;20418;-68
2021/09/01 04:13:51;;;;;;;1999.90;999.90;;;15.30;99.90;;;;;;5051387;28;20465;-69
2021/09/01 04:16:16;;;;;;;1999.90;999.90;;;15.30;99.90;;;;;;5051840;28;20207;-69
2021/09/01 04:18:42;;;;;;;1999.90;999.90;;;15.20;99.90;;;;;;5051754;28;20431;-69
2021/09/01 04:21:08;;;;;;;1999.90;999.90;;;15.20;99.90;;;;;;5051563;28;20196;-69
2021/09/01 04:23:34;;;;;;;1999.90;999.90;;;15.10;99.90;;;;;;5051525;28;20179;-69
2021/09/01 04:25:59;;;;;;;1999.90;999.90;;;15.10;99.90;;;;;;5051537;28;20176;-69
2021/09/01 04:28:25;;;;;;;1999.90;999.90;;;15.10;99.90;;;;;;5051606;28;20888;-70
2021/09/01 04:30:51;;;;;;;1999.90;999.90;;;15.00;99.90;;;;;;5051647;28;20175;-69
2021/09/01 04:33:16;;;;;;;1999.90;999.90;;;15.00;99.90;;;;;;5051669;28;20544;-69
2021/09/01 04:35:42;;;;;;;1999.90;999.90;;;15.00;99.90;;;;;;5051229;28;20196;-69
2021/09/01 04:38:08;;;;;;;1999.90;999.90;;;14.90;99.90;;;;;;5051574;28;20413;-69
2021/09/01 04:40:34;;;;;;;1999.90;999.90;;;14.90;99.90;;;;;;5051614;28;20449;-69
2021/09/01 04:42:59;;;;;;;1999.90;999.90;;;14.80;99.90;;;;;;5051515;28;20224;-69
2021/09/01 04:45:25;;;;;;;1999.90;999.90;;;14.90;99.90;;;;;;5051167;28;20528;-69
2021/09/01 04:47:51;;;;;;;1999.90;999.90;;;14.90;99.90;;;;;;5051544;28;20192;-69
2021/09/01 04:50:16;;;;;;;1999.90;999.90;;;14.90;99.90;;;;;;5051453;28;20251;-69
2021/09/01 04:52:42;;;;;;;1999.90;999.90;;;15.00;99.90;;;;;;5051365;28;20259;-69
2021/09/01 04:55:08;;;;;;;1999.90;999.90;;;15.10;99.90;;;;;;5051063;28;20196;-69
2021/09/01 04:57:34;;;;;;;1999.90;999.90;;;15.20;99.90;;;;;;5051462;28;20272;-69
2021/09/01 05:00:00;;;;;;;1999.90;999.90;;;15.30;99.90;;;;;;5051355;28;20817;-69
2021/09/01 05:02:26;;;;;;;1999.90;999.90;;;15.40;99.90;;;;;;5051365;28;20417;-68
2021/09/01 05:04:51;;;;;;;1999.90;999.90;;;15.40;99.90;;;;;;5050964;28;20188;-69
2021/09/01 05:07:17;;;;;;;1999.90;999.90;;;15.50;99.90;;;;;;5051269;28;20201;-69
2021/09/01 05:09:43;;;;;;;1999.90;999.90;;;15.50;99.90;;;;;;5051264;28;20578;-69
2021/09/01 05:12:08;;;;;;;1999.90;999.90;;;15.50;99.90;;;;;;5051208;28;20179;-69
2021/09/01 05:14:34;;;;;;;1999.90;999.90;;;15.50;99.90;;;;;;5050776;28;20217;-69
2021/09/01 05:17:00;;;;;;;1999.90;999.90;;;15.60;99.90;;;;;;5051203;28;20200;-69
2021/09/01 05:19:25;;;;;;;1999.90;999.90;;;15.60;99.90;;;;;;5051193;28;20900;-69
2021/09/01 05:21:53;;;;;;;1999.90;999.90;;;15.70;99.90;;;;;;5053751;28;20205;-69
2021/09/01 05:24:40;;;;;;;1999.90;999.90;;;15.70;99.90;;;;;;5054381;28;20207;-69
2021/09/01 05:27:18;;;;;;;1999.90;999.90;;;15.70;99.90;;;;;;5054764;28;20418;-69
2021/09/01 05:29:45;;;;;;;1999.90;999.90;;;15.70;99.90;;;;;;5054666;28;20405;-69
2021/09/01 05:32:23;;;;;;;1999.90;999.90;;;15.60;99.90;;;;;;5054508;28;20417;-69
2021/09/01 05:34:50;;;;;;;1999.90;999.90;;;15.60;99.90;;;;;;5054327;28;20810;-69
2021/09/01 05:37:17;;;;;;;1999.90;999.90;;;15.60;99.90;;;;;;5054475;28;20406;-69
2021/09/01 05:39:45;;;;;;;1999.90;999.90;;;15.70;99.90;;;;;;5054493;28;20423;-69
2021/09/01 05:42:13;;;;;;;1999.90;999.90;;;15.70;99.90;;;;;;5054411;28;20450;-69
2021/09/01 05:44:40;;;;;;;1999.90;999.90;;;15.70;99.90;;;;;;5054207;28;20989;-69
2021/09/01 05:47:08;;;;;;;1999.90;999.90;;;15.70;99.90;;;;;;5054328;28;20408;-69
2021/09/01 05:49:34;;;;;;;1999.90;999.90;;;15.80;99.90;;;;;;5054331;28;20497;-69
2021/09/01 05:52:01;;;;;;;1999.90;999.90;;;15.80;99.90;;;;;;5054204;28;20417;-69
2021/09/01 05:54:28;;;;;;;1999.90;999.90;;;15.80;99.90;;;;;;5053843;28;20426;-69
2021/09/01 05:57:09;;;;;;;1999.90;999.90;;;15.80;99.90;;;;;;5054058;28;20403;-69
2021/09/01 05:59:47;;;;;;;1999.90;999.90;;;15.90;99.90;;;;;;5054099;28;20402;-69
2021/09/01 06:02:30;;;;;;;1999.90;999.90;;;16.00;99.90;;;;;;5053947;28;20485;-69
2021/09/01 06:04:58;;;;;;;1999.90;999.90;;;16.00;99.90;;;;;;5053704;28;20518;-69
2021/09/01 06:07:27;;;;;;;1999.90;999.90;;;16.00;99.90;;;;;;5053887;28;20408;-69
2021/09/01 06:10:01;;;;;;;1999.90;999.90;;;16.00;99.90;;;;;;5053848;28;20412;-69
2021/09/01 06:12:29;;;;;;;1999.90;999.90;;;16.10;99.90;;;;;;5053888;28;20403;-69
2021/09/01 06:14:55;;;;;;;1999.90;999.90;;;16.10;99.90;;;;;;5053490;28;20452;-69
2021/09/01 06:17:21;;;;;;;1999.90;999.90;;;16.20;99.90;;;;;;5053963;28;20418;-69
2021/09/01 06:19:47;;;;;;;1999.90;999.90;;;16.20;99.90;;;;;;5053860;28;20432;-69
2021/09/01 06:22:14;;;;;;;1999.90;999.90;;;16.30;99.90;;;;;;5053750;28;20297;-69
2021/09/01 06:24:40;;;;;;;1999.90;999.90;;;16.40;99.90;;;;;;5053459;28;20183;-69
2021/09/01 06:27:05;;;;;;;1999.90;999.90;;;16.50;99.90;;;;;;5036021;28;21101;-69
2021/09/01 06:29:31;;;;;;;1999.90;999.90;;;16.60;99.90;;;;;;5053613;28;20398;-69
2021/09/01 06:31:57;;;;;;;1999.90;999.90;;;16.60;99.90;;;;;;5053491;28;20176;-69
2021/09/01 06:34:23;;;;;;;1999.90;999.90;;;16.70;99.90;;;;;;5053139;28;20931;-69
2021/09/01 06:36:49;;;;;;;1999.90;999.90;;;16.70;99.90;;;;;;5053371;28;20208;-69
2021/09/01 06:39:15;;;;;;;1999.90;999.90;;;16.80;99.90;;;;;;5053336;28;20494;-69
2021/09/01 06:41:40;;;;;;;1999.90;999.90;;;16.80;99.90;;;;;;5053159;28;20546;-69
2021/09/01 06:44:06;;;;;;;1999.90;999.90;;;16.90;99.90;;;;;;5052951;28;20692;-69
2021/09/01 06:46:32;;;;;;;1999.90;999.90;;;16.90;99.90;;;;;;5053209;28;20199;-69
2021/09/01 06:48:58;;;;;;;1999.90;999.90;;;17.00;99.90;;;;;;5053167;28;20420;-69
2021/09/01 06:51:24;;;;;;;1999.90;999.90;;;17.10;99.90;;;;;;5053068;28;20255;-69
2021/09/01 06:53:49;;;;;;;1999.90;999.90;;;17.10;99.90;;;;;;5052782;28;20445;-69
2021/09/01 06:56:15;;;;;;;1999.90;999.90;;;17.10;99.90;;;;;;5052974;28;20410;-69
2021/09/01 06:58:41;;;;;;;1999.90;999.90;;;17.00;99.90;;;;;;5052913;28;20177;-69
2021/09/01 07:01:06;;;;;;;1999.90;999.90;;;17.00;99.90;;;;;;5052628;28;20207;-69
2021/09/01 07:03:32;;;;;;;1999.90;999.90;;;16.90;99.90;;;;;;5052829;28;20173;-69
2021/09/01 07:05:57;;;;;;;1999.90;999.90;;;16.90;99.90;;;;;;5052517;28;20799;-69
2021/09/01 07:08:23;;;;;;;1999.90;999.90;;;17.00;99.90;;;;;;5052802;28;20172;-69
2021/09/01 07:10:50;;;;;;;1999.90;999.90;;;17.00;99.90;;;;;;5052673;28;20173;-69
2021/09/01 07:13:16;;;;;;;1999.90;999.90;;;16.90;99.90;;;;;;5052738;28;20542;-69
2021/09/01 07:15:43;;;;;;;1999.90;999.90;;;16.90;99.90;;;;;;5052247;28;20502;-69
2021/09/01 07:18:08;;;;;;;1999.90;999.90;;;16.90;99.90;;;;;;5052647;28;20421;-69
2021/09/01 07:20:34;;;;;;;1999.90;999.90;;;16.90;99.90;;;;;;5052555;28;20954;-69
2021/09/01 07:23:00;;;;;;;1999.90;999.90;;;16.90;99.90;;;;;;5052578;28;20179;-69
2021/09/01 07:25:26;;;;;;;1999.90;999.90;;;16.90;99.90;;;;;;5052347;28;20909;-69
2021/09/01 07:27:52;;;;;;;1999.90;999.90;;;16.80;99.90;;;;;;5052489;28;20248;-69
2021/09/01 07:30:18;;;;;;;1999.90;999.90;;;16.80;99.90;;;;;;5052455;28;20442;-69
2021/09/01 07:32:43;;;;;;;1999.90;999.90;;;16.80;99.90;;;;;;5052379;28;20167;-69
2021/09/01 07:35:10;;;;;;;1999.90;999.90;;;16.70;99.90;;;;;;5051957;28;20439;-69
2021/09/01 07:37:47;;;;;;;1999.90;999.90;;;16.80;99.90;;;;;;5052353;28;20168;-69
2021/09/01 07:40:15;;;;;;;1999.90;999.90;;;16.70;99.90;;;;;;5052268;28;20484;-69
2021/09/01 07:42:41;;;;;;;1999.90;999.90;;;16.80;99.90;;;;;;5052169;28;20540;-69
2021/09/01 07:45:07;;;;;;;1999.90;999.90;;;16.90;99.90;;;;;;5051559;28;20516;-69
2021/09/01 07:47:33;;;;;;;1999.90;999.90;;;16.90;99.90;;;;;;5052135;28;20178;-69
2021/09/01 07:49:58;;;;;;;1999.90;999.90;;;16.90;99.90;;;;;;5051942;28;20406;-69
2021/09/01 07:52:24;;;;;;;1999.90;999.90;;;16.90;99.90;;;;;;5052235;28;20175;-69
2021/09/01 07:54:49;;;;;;;1999.90;999.90;;;16.90;99.90;;;;;;5051680;28;20251;-69
2021/09/01 07:57:15;;;;;;;1999.90;999.90;;;17.00;99.90;;;;;;5052036;28;20591;-69
2021/09/01 07:59:41;;;;;;;1999.90;999.90;;;17.10;99.90;;;;;;5052078;28;20203;-69
2021/09/01 08:02:06;;;;;;;1999.90;999.90;;;17.10;99.90;;;;;;5051821;28;20206;-69
2021/09/01 08:04:32;;;;;;;1999.90;999.90;;;17.00;99.90;;;;;;5051517;28;20219;-69
2021/09/01 08:06:58;;;;;;;1999.90;999.90;;;17.00;99.90;;;;;;5051939;28;20245;-69
2021/09/01 08:09:23;;;;;;;1999.90;999.90;;;16.90;99.90;;;;;;5051955;28;20629;-69
2021/09/01 08:11:49;;;;;;;1999.90;999.90;;;17.00;99.90;;;;;;5051834;28;20174;-69
2021/09/01 08:14:14;;;;;;;1999.90;999.90;;;17.00;99.90;;;;;;5051355;28;20212;-69
2021/09/01 08:16:40;;;;;;;1999.90;999.90;;;16.90;99.90;;;;;;5051817;28;20252;-69
2021/09/01 08:19:06;;;;;;;1999.90;999.90;;;17.00;99.90;;;;;;5051677;28;20184;-69
2021/09/01 08:21:31;;;;;;;1999.90;999.90;;;16.90;99.90;;;;;;5051693;28;20683;-69
2021/09/01 08:23:57;;;;;;;1999.90;999.90;;;17.10;99.90;;;;;;5051336;28;20188;-69
2021/09/01 08:26:22;;;;;;;1999.90;999.90;;;17.00;99.90;;;;;;5051825;28;20543;-69
2021/09/01 08:28:50;;;;;;;1999.90;999.90;;;17.00;99.90;;;;;;5051710;28;20163;-69
2021/09/01 08:31:15;;;;;;;1999.90;999.90;;;17.00;99.90;;;;;;5051689;28;20191;-69
2021/09/01 08:33:41;;;;;;;1999.90;999.90;;;17.00;99.90;;;;;;5051440;28;20896;-69
2021/09/01 08:36:07;;;;;;;1999.90;999.90;;;17.10;99.90;;;;;;5051513;28;20178;-69
2021/09/01 08:38:32;;;;;;;1999.90;999.90;;;17.10;99.90;;;;;;5051673;28;20177;-69
2021/09/01 08:40:58;;;;;;;1999.90;999.90;;;17.20;99.90;;;;;;5051546;28;20202;-69
2021/09/01 08:43:24;;;;;;;1999.90;999.90;;;17.30;99.90;;;;;;5051490;28;20177;-69
2021/09/01 08:45:49;;;;;;;1999.90;999.90;;;17.40;99.90;;;;;;5051131;28;20429;-69
2021/09/01 08:48:16;;;;;;;1999.90;999.90;;;17.50;99.90;;;;;;5051473;28;20258;-69
2021/09/01 08:50:42;;;;;;;1999.90;999.90;;;17.60;99.90;;;;;;5051511;28;20178;-69
2021/09/01 08:53:08;;;;;;;1999.90;999.90;;;17.60;99.90;;;;;;5051524;28;20406;-69
2021/09/01 08:55:34;;;;;;;1999.90;999.90;;;17.50;99.90;;;;;;5051962;28;20838;-69
2021/09/01 08:58:00;;;;;;;1999.90;999.90;;;17.60;99.90;;;;;;5055343;28;20168;-69
2021/09/01 09:00:26;;;;;;;1999.90;999.90;;;17.50;99.90;;;;;;5055147;28;20202;-69
2021/09/01 09:02:59;;;;;;;1999.90;999.90;;;17.50;99.90;;;;;;5054946;28;20925;-69
2021/09/01 09:05:36;;;;;;;1999.90;999.90;;;17.50;99.90;;;;;;5054861;28;20200;-69
2021/09/01 09:08:04;;;;;;;1999.90;999.90;;;17.40;99.90;;;;;;5055229;28;20406;-69
2021/09/01 09:10:36;;;;;;;1999.90;999.90;;;17.50;99.90;;;;;;5055165;28;20424;-69
2021/09/01 09:13:05;;;;;;;1999.90;999.90;;;17.60;99.90;;;;;;5054923;28;20413;-69
2021/09/01 09:15:31;;;;;;;1999.90;999.90;;;17.50;99.90;;;;;;5082166;22;20478;-72
2021/09/01 09:17:57;;;;;;;1999.90;999.90;;;17.40;99.90;;;;;;5035004;28;20403;-71
2021/09/01 09:20:41;;;;;;;1999.90;999.90;;;17.30;99.90;;;;;;5035030;28;20441;-71
2021/09/01 09:23:06;;;;;;;1999.90;999.90;;;17.30;99.90;;;;;;5035026;28;20199;-70
2021/09/01 09:25:34;;;;;;;1999.90;999.90;;;17.40;99.90;;;;;;5034474;28;20463;-71
2021/09/01 09:28:07;;;;;;;1999.90;999.90;;;17.50;99.90;;;;;;5034799;28;20679;-71
2021/09/01 09:30:40;;;;;;;1999.90;999.90;;;17.50;99.90;;;;;;5034732;28;20404;-70
2021/09/01 09:33:15;;;;;;;1999.90;999.90;;;17.40;99.90;;;;;;5034818;28;20822;-71
2021/09/01 09:36:01;;;;;;;1999.90;999.90;;;17.30;99.90;;;;;;5034237;28;20493;-71
2021/09/01 09:38:32;;;;;;;1999.90;999.90;;;17.40;99.90;;;;;;5034681;28;20421;-71
2021/09/01 09:40:59;;;;;;;1999.90;999.90;;;17.40;99.90;;;;;;5034556;28;20794;-71
2021/09/01 09:43:26;;;;;;;1999.90;999.90;;;17.40;99.90;;;;;;5032391;28;20419;-73
2021/09/01 09:46:01;;;;;;;1999.90;999.90;;;17.40;99.90;;;;;;5033742;28;20421;-71
2021/09/01 09:48:32;;;;;;;1999.90;999.90;;;17.40;99.90;;;;;;5033846;28;20807;-72
2021/09/01 09:51:00;;;;;;;1999.90;999.90;;;17.40;99.90;;;;;;5033995;28;20898;-72
2021/09/01 09:53:48;;;;;;;1999.90;999.90;;;17.40;99.90;;;;;;5029848;28;20756;-72
2021/09/01 09:56:23;;;;;;;1999.90;999.90;;;17.40;99.90;;;;;;5033391;28;20430;-72
2021/09/01 09:58:54;;;;;;;1999.90;999.90;;;17.40;99.90;;;;;;5032902;28;20420;-72
2021/09/01 10:01:21;;;;;;;1999.90;999.90;;;17.50;99.90;;;;;;5033481;28;20972;-72
2021/09/01 10:03:49;;;;;;;1999.90;999.90;;;17.60;99.90;;;;;;5033325;28;20409;-72
2021/09/01 10:06:19;;;;;;;1999.90;999.90;;;17.70;99.90;;;;;;5032335;28;20848;-70
2021/09/01 10:08:47;;;;;;;1999.90;999.90;;;17.80;99.90;;;;;;5033471;28;20402;-69
2021/09/01 10:11:14;;;;;;;1999.90;999.90;;;17.60;99.90;;;;;;5032960;28;20481;-70
2021/09/01 10:13:42;;;;;;;1999.90;999.90;;;17.50;99.90;;;;;;5032703;28;20467;-70
2021/09/01 10:16:19;;;;;;;1999.90;999.90;;;17.50;99.90;;;;;;5032656;28;20997;-70
2021/09/01 10:18:48;;;;;;;1999.90;999.90;;;17.30;99.90;;;;;;5033119;28;20404;-72
2021/09/01 10:21:14;;;;;;;1999.90;999.90;;;17.30;99.90;;;;;;5032248;28;20971;-70
2021/09/01 10:23:45;;;;;;;1999.90;999.90;;;17.20;99.90;;;;;;5032854;28;20409;-72
2021/09/01 10:26:20;;;;;;;1999.90;999.90;;;17.20;99.90;;;;;;5032828;28;20268;-70
2021/09/01 10:28:46;;;;;;;1999.90;999.90;;;17.10;99.90;;;;;;5032718;28;20414;-70
2021/09/01 10:31:17;;;;;;;1999.90;999.90;;;17.10;99.90;;;;;;5033006;28;20803;-69
2021/09/01 10:33:46;;;;;;;1999.90;999.90;;;17.20;99.90;;;;;;5032918;28;20213;-69
2021/09/01 10:36:23;;;;;;;1999.90;999.90;;;17.20;99.90;;;;;;5032112;28;20432;-69
2021/09/01 10:39:15;;;;;;;1999.90;999.90;;;17.20;99.90;;;;;;5033020;28;20782;-69
2021/09/01 10:41:41;;;;;;;1999.90;999.90;;;17.20;99.90;;;;;;5032735;28;20462;-70
2021/09/01 10:44:20;;;;;;;1999.90;999.90;;;17.20;99.90;;;;;;5031983;28;20404;-69
2021/09/01 10:46:52;;;;;;;1999.90;999.90;;;17.30;99.90;;;;;;5032513;28;20784;-70
2021/09/01 10:49:24;;;;;;;1999.90;999.90;;;17.20;99.90;;;;;;5032688;28;20407;-70
2021/09/01 10:51:55;;;;;;;1999.90;999.90;;;17.30;99.90;;;;;;5032176;28;20414;-70
2021/09/01 10:54:33;;;;;;;1999.90;999.90;;;17.50;99.90;;;;;;5032253;28;20423;-70
2021/09/01 10:57:07;;;;;;;1999.90;999.90;;;17.60;99.90;;;;;;5032276;28;20410;-70
2021/09/01 10:59:39;;;;;;;1999.90;999.90;;;17.50;99.90;;;;;;5031987;28;20445;-70
2021/09/01 11:02:16;;;;;;;1999.90;999.90;;;17.60;99.90;;;;;;5032360;28;20544;-72
2021/09/01 11:05:08;;;;;;;1999.90;999.90;;;17.60;99.90;;;;;;5032050;28;20825;-70
2021/09/01 11:07:33;;;;;;;1999.90;999.90;;;17.60;99.90;;;;;;5031932;28;20416;-70
2021/09/01 11:10:04;;;;;;;1999.90;999.90;;;17.70;99.90;;;;;;5032323;28;20907;-70
2021/09/01 11:12:32;;;;;;;1999.90;999.90;;;17.90;99.90;;;;;;5032279;28;20584;-70
2021/09/01 11:14:58;;;;;;;1999.90;999.90;;;17.80;99.90;;;;;;5031289;28;20450;-70
2021/09/01 11:17:27;;;;;;;1999.90;999.90;;;17.90;99.90;;;;;;5031830;28;20448;-70
2021/09/01 11:20:00;;;;;;;1999.90;999.90;;;17.90;99.90;;;;;;5031575;28;20227;-70
2021/09/01 11:22:29;;;;;;;1999.90;999.90;;;18.00;99.90;;;;;;5031719;28;20959;-70
2021/09/01 11:25:00;;;;;;;1999.90;999.90;;;18.20;99.90;;;;;;5031726;28;20849;-69
2021/09/01 11:27:27;;;;;;;1999.90;999.90;;;18.40;99.90;;;;;;5031583;28;20403;-73
2021/09/01 11:30:05;;;;;;;1999.90;999.90;;;18.50;99.90;;;;;;5031790;28;20416;-69
2021/09/01 11:32:31;;;;;;;1999.90;999.90;;;18.70;99.90;;;;;;5031872;28;20403;-70
2021/09/01 11:35:01;;;;;;;1999.90;999.90;;;18.70;99.90;;;;;;5030963;28;21047;-70
2021/09/01 11:37:26;;;;;;;1999.90;999.90;;;18.70;99.90;;;;;;5031693;28;20415;-70
2021/09/01 11:39:52;;;;;;;1999.90;999.90;;;18.50;99.90;;;;;;5031776;28;20908;-70
2021/09/01 11:42:18;;;;;;;1999.90;999.90;;;18.50;99.90;;;;;;5031143;28;20200;-70
2021/09/01 11:44:57;;;;;;;1999.90;999.90;;;18.50;99.90;;;;;;5031279;28;20425;-69
2021/09/01 11:47:24;;;;;;;1999.90;999.90;;;18.40;99.90;;;;;;5031497;28;20391;-69
2021/09/01 11:49:51;;;;;;;1999.90;999.90;;;18.30;99.90;;;;;;5031155;28;20408;-70
2021/09/01 11:52:26;;;;;;;1999.90;999.90;;;18.20;99.90;;;;;;5031501;28;20452;-70
2021/09/01 11:54:52;;;;;;;1999.90;999.90;;;18.20;99.90;;;;;;5031211;28;20461;-71
2021/09/01 11:57:32;;;;;;;1999.90;999.90;;;18.20;99.90;;;;;;5030812;28;20441;-70
2021/09/01 11:59:59;;;;;;;1999.90;999.90;;;18.30;99.90;;;;;;5031536;28;20164;-71
2021/09/01 12:02:27;;;;;;;1999.90;999.90;;;18.40;99.90;;;;;;5031324;28;20500;-70